Time;durP1;ratioP1;P1;durP2;ratioP2;P2;SDS_P1;SDS_P2;PMS_P1;PMS_P2;Temp;Humidity;BMP_temperature;BMP_pressure;BME280_temperature;BME280_humidity;BME280_pressure;Samples;Min_cycle;Max_cycle;Signal;HPM_P1;HPM_P2
2022/04/25 00:02:22;;;;;;;11.10;7.65;;;8.90;99.90;;;;;;5003125;28;20041;-75
2022/04/25 00:04:48;;;;;;;14.73;8.05;;;8.70;99.90;;;;;;4990853;28;20096;-76
2022/04/25 00:07:13;;;;;;;14.48;7.57;;;9.10;99.90;;;;;;4982560;28;20034;-75
2022/04/25 00:09:39;;;;;;;10.43;7.13;;;9.10;99.90;;;;;;4983579;28;20103;-77
2022/04/25 00:12:05;;;;;;;13.60;7.80;;;9.00;99.90;;;;;;5006319;28;20041;-74
2022/04/25 00:14:30;;;;;;;12.38;7.22;;;9.00;99.90;;;;;;4982963;28;20120;-75
2022/04/25 00:16:56;;;;;;;14.65;8.43;;;9.00;99.90;;;;;;4985948;28;20046;-75
2022/04/25 00:19:22;;;;;;;11.05;6.85;;;9.00;99.90;;;;;;5006119;28;20080;-76
2022/04/25 00:21:48;;;;;;;14.07;7.85;;;9.00;99.90;;;;;;5006386;28;20045;-76
2022/04/25 00:24:14;;;;;;;12.25;7.93;;;9.00;99.90;;;;;;4980997;28;20046;-75
2022/04/25 00:26:39;;;;;;;9.05;7.38;;;8.80;99.90;;;;;;5004860;28;20054;-75
2022/04/25 00:29:05;;;;;;;11.45;7.70;;;9.00;99.90;;;;;;5001759;28;20370;-75
2022/04/25 00:31:31;;;;;;;11.15;7.53;;;9.00;99.90;;;;;;4998631;28;20042;-75
2022/04/25 00:33:56;;;;;;;15.63;7.55;;;9.00;99.90;;;;;;5003061;28;20765;-75
2022/04/25 00:36:22;;;;;;;13.00;7.78;;;9.00;99.90;;;;;;4993698;28;20042;-75
2022/04/25 00:38:47;;;;;;;12.13;8.23;;;8.10;99.90;;;;;;4989463;28;20077;-76
2022/04/25 00:41:13;;;;;;;11.77;7.82;;;9.00;99.90;;;;;;5005144;28;20050;-75
2022/04/25 00:43:38;;;;;;;14.35;8.20;;;9.00;99.90;;;;;;4983997;28;20078;-76
2022/04/25 00:46:04;;;;;;;14.35;8.85;;;9.10;99.90;;;;;;4988080;28;20042;-75
2022/04/25 00:48:30;;;;;;;13.23;7.22;;;9.10;99.90;;;;;;4997141;28;20121;-75
2022/04/25 00:50:55;;;;;;;14.60;9.07;;;9.00;99.90;;;;;;4984484;28;20046;-75
2022/04/25 00:53:21;;;;;;;10.70;8.18;;;9.10;99.90;;;;;;5005521;28;20034;-75
2022/04/25 00:55:48;;;;;;;15.18;8.20;;;9.00;99.90;;;;;;5003298;28;20037;-75
2022/04/25 00:58:14;;;;;;;12.40;7.82;;;8.80;99.90;;;;;;5003078;28;20104;-75
2022/04/25 01:00:40;;;;;;;11.15;7.90;;;9.00;99.90;;;;;;5003124;28;20038;-76
2022/04/25 01:03:06;;;;;;;13.95;8.85;;;9.00;99.90;;;;;;5004544;28;20084;-76
2022/04/25 01:05:32;;;;;;;11.05;8.32;;;9.00;99.90;;;;;;4999402;28;20073;-75
2022/04/25 01:07:59;;;;;;;14.98;8.68;;;9.00;99.90;;;;;;5006408;28;20406;-76
2022/04/25 01:10:25;;;;;;;12.65;8.50;;;9.00;99.90;;;;;;4986384;28;20057;-75
2022/04/25 01:12:50;;;;;;;13.20;7.90;;;8.60;99.90;;;;;;5002812;28;20038;-76
2022/04/25 01:15:16;;;;;;;13.15;7.90;;;9.10;99.90;;;;;;5004073;28;20098;-76
2022/04/25 01:17:42;;;;;;;11.23;7.95;;;10.00;99.90;;;;;;4998309;28;20038;-75
2022/04/25 01:20:08;;;;;;;11.88;8.18;;;9.10;99.90;;;;;;5002765;28;20053;-76
2022/04/25 01:22:56;;;;;;;12.82;8.10;;;9.10;99.90;;;;;;5001968;28;20104;-75
2022/04/25 01:28:07;;;;;;;11.48;7.80;;;9.00;99.90;;;;;;4997126;28;20125;-75
2022/04/25 01:30:32;;;;;;;14.13;8.30;;;8.90;99.90;;;;;;5000807;28;20148;-75
2022/04/25 01:32:59;;;;;;;13.07;7.78;;;8.80;99.90;;;;;;5003513;28;20529;-75
2022/04/25 01:35:24;;;;;;;15.30;8.23;;;8.80;99.90;;;;;;4988861;28;20398;-76
2022/04/25 01:37:50;;;;;;;16.35;9.93;;;8.80;99.90;;;;;;4997837;28;20037;-74
2022/04/25 01:40:16;;;;;;;13.40;8.07;;;8.80;99.90;;;;;;5001525;28;20038;-75
2022/04/25 01:42:42;;;;;;;14.50;8.65;;;8.70;99.90;;;;;;4987647;28;20050;-76
2022/04/25 01:45:08;;;;;;;17.02;9.45;;;8.70;99.90;;;;;;5003829;28;20058;-76
2022/04/25 01:47:34;;;;;;;14.82;7.93;;;8.70;99.90;;;;;;4980050;28;20141;-75
2022/04/25 01:49:59;;;;;;;13.43;9.52;;;8.60;99.90;;;;;;5000799;28;20124;-76
2022/04/25 01:52:30;;;;;;;14.30;8.70;;;8.60;99.90;;;;;;5007203;28;20120;-76
2022/04/25 01:54:57;;;;;;;13.15;8.50;;;9.10;99.90;;;;;;5007811;28;20049;-75
2022/04/25 01:57:23;;;;;;;16.13;9.05;;;8.50;99.90;;;;;;5003883;28;20045;-74
2022/04/25 01:59:48;;;;;;;14.25;9.23;;;8.40;99.90;;;;;;4993078;28;20038;-75
2022/04/25 02:02:14;;;;;;;12.95;8.30;;;8.40;99.90;;;;;;5009141;28;20074;-77
2022/04/25 02:04:41;;;;;;;13.82;9.13;;;8.40;99.90;;;;;;5009502;28;20080;-75
2022/04/25 02:07:08;;;;;;;13.13;8.45;;;8.40;99.90;;;;;;5009321;28;20030;-76
2022/04/25 02:09:35;;;;;;;17.08;9.23;;;8.30;99.90;;;;;;4997251;28;20077;-75
2022/04/25 02:12:00;;;;;;;16.42;9.20;;;8.30;99.90;;;;;;5006351;28;20471;-74
2022/04/25 02:14:29;;;;;;;10.27;8.05;;;8.20;99.90;;;;;;5009048;28;20113;-75
2022/04/25 02:16:58;;;;;;;17.23;9.43;;;8.10;99.90;;;;;;5008938;28;20099;-75
2022/04/25 02:19:28;;;;;;;15.60;8.65;;;8.10;99.90;;;;;;5008668;28;20544;-75
2022/04/25 02:21:54;;;;;;;13.02;8.63;;;8.70;99.90;;;;;;5025081;28;20050;-75
2022/04/25 02:24:20;;;;;;;13.45;8.65;;;8.10;99.90;;;;;;5008656;28;20038;-75
2022/04/25 02:26:48;;;;;;;13.82;9.20;;;8.00;99.90;;;;;;4991303;28;20054;-75
2022/04/25 02:29:14;;;;;;;12.32;8.88;;;8.00;99.90;;;;;;4990189;28;20049;-75
2022/04/25 02:31:39;;;;;;;14.70;8.60;;;8.00;99.90;;;;;;4987092;28;20077;-75
2022/04/25 02:34:05;;;;;;;15.48;8.38;;;8.00;99.90;;;;;;5002768;28;20041;-75
2022/04/25 02:36:31;;;;;;;18.75;9.77;;;8.00;99.90;;;;;;4988259;28;20041;-75
2022/04/25 02:38:56;;;;;;;12.98;8.32;;;8.00;99.90;;;;;;5004783;28;20042;-75
2022/04/25 02:41:22;;;;;;;16.83;9.07;;;8.00;99.90;;;;;;5009566;28;20045;-75
2022/04/25 02:43:48;;;;;;;13.55;8.88;;;7.70;99.90;;;;;;5009316;28;20050;-75
2022/04/25 02:46:15;;;;;;;12.73;8.38;;;8.00;99.90;;;;;;4990127;28;20394;-75
2022/04/25 02:48:42;;;;;;;13.13;8.68;;;7.90;99.90;;;;;;5008065;28;20041;-75
2022/04/25 02:51:09;;;;;;;15.65;9.55;;;7.90;99.90;;;;;;5006059;28;20149;-76
2022/04/25 02:53:35;;;;;;;14.07;7.80;;;8.30;99.90;;;;;;5010090;28;20038;-75
2022/04/25 02:56:02;;;;;;;11.70;8.18;;;7.90;99.90;;;;;;4990568;28;20050;-75
2022/04/25 02:58:29;;;;;;;15.27;7.85;;;7.90;99.90;;;;;;4998793;28;20038;-75
2022/04/25 03:00:55;;;;;;;19.27;9.70;;;7.90;99.90;;;;;;5004607;28;20077;-75
2022/04/25 03:03:22;;;;;;;11.80;8.02;;;7.90;99.90;;;;;;5007426;28;20060;-75
2022/04/25 03:05:49;;;;;;;14.57;7.88;;;7.90;99.90;;;;;;5004721;28;20054;-74
2022/04/25 03:08:18;;;;;;;13.43;8.20;;;7.90;99.90;;;;;;5007913;28;20046;-75
2022/04/25 03:10:45;;;;;;;12.13;6.93;;;7.90;99.90;;;;;;5004720;28;20704;-75
2022/04/25 03:13:12;;;;;;;12.60;7.47;;;9.30;99.90;;;;;;4998743;28;20042;-75
2022/04/25 03:15:38;;;;;;;15.43;8.27;;;7.90;99.90;;;;;;5001439;28;20462;-75
2022/04/25 03:18:10;;;;;;;11.45;7.35;;;7.90;99.90;;;;;;5005279;28;20042;-76
2022/04/25 03:20:36;;;;;;;12.00;7.15;;;7.60;99.90;;;;;;5001363;28;20046;-76
2022/04/25 03:23:02;;;;;;;17.30;7.85;;;9.10;99.90;;;;;;5000547;28;20037;-76
2022/04/25 03:25:28;;;;;;;9.77;7.47;;;8.00;99.90;;;;;;5005401;28;20433;-75
2022/04/25 03:27:54;;;;;;;8.45;6.78;;;8.00;99.90;;;;;;5007420;28;20237;-76
2022/04/25 03:30:20;;;;;;;8.68;6.82;;;8.00;99.90;;;;;;5004433;28;20136;-76
2022/04/25 03:32:49;;;;;;;11.25;6.85;;;8.00;99.90;;;;;;4985647;28;20040;-75
2022/04/25 03:35:17;;;;;;;12.85;6.97;;;8.10;99.90;;;;;;4986719;28;20092;-74
2022/04/25 03:37:44;;;;;;;13.25;7.18;;;8.10;99.90;;;;;;5007713;28;20053;-74
2022/04/25 03:40:10;;;;;;;11.10;6.90;;;8.20;99.90;;;;;;4996676;28;20039;-74
2022/04/25 03:42:37;;;;;;;9.82;7.00;;;8.10;99.90;;;;;;4986780;28;20057;-75
2022/04/25 03:45:11;;;;;;;9.15;7.18;;;8.20;99.90;;;;;;5006083;28;20054;-75
2022/04/25 03:47:38;;;;;;;12.67;6.67;;;8.20;99.90;;;;;;5007707;28;20042;-75
2022/04/25 03:50:07;;;;;;;14.70;6.90;;;8.20;99.90;;;;;;4991490;28;20134;-75
2022/04/25 03:52:33;;;;;;;12.30;6.38;;;8.20;99.90;;;;;;5003289;28;20034;-75
2022/04/25 03:57:47;;;;;;;;;;;8.30;99.90;;;;;;5000715;28;20061;-75
2022/04/25 04:00:13;;;;;;;11.45;7.22;;;8.30;99.90;;;;;;5007426;28;19928;-75
2022/04/25 04:02:38;;;;;;;11.23;7.28;;;8.30;99.90;;;;;;4984502;28;20046;-75
2022/04/25 04:05:05;;;;;;;11.75;6.57;;;8.20;99.90;;;;;;5005014;28;20045;-76
2022/04/25 04:07:31;;;;;;;12.05;6.90;;;8.30;99.90;;;;;;5005507;28;20056;-75
2022/04/25 04:09:57;;;;;;;8.68;6.43;;;8.30;99.90;;;;;;5003163;28;20041;-76
2022/04/25 04:12:25;;;;;;;12.88;6.45;;;8.30;99.90;;;;;;5006141;28;20034;-76
2022/04/25 04:14:51;;;;;;;11.88;6.93;;;8.30;99.90;;;;;;4984181;28;20121;-76
2022/04/25 04:17:17;;;;;;;11.48;7.05;;;8.20;99.90;;;;;;5008509;28;20229;-75
2022/04/25 04:19:44;;;;;;;12.27;6.45;;;8.20;99.90;;;;;;5006909;28;20690;-75
2022/04/25 04:22:10;;;;;;;12.93;7.57;;;9.40;99.90;;;;;;4999067;28;20050;-75
2022/04/25 04:24:36;;;;;;;9.18;7.28;;;8.30;99.90;;;;;;4990487;28;20034;-75
2022/04/25 04:27:02;;;;;;;11.55;7.95;;;8.20;99.90;;;;;;5000456;28;20042;-75
2022/04/25 04:29:29;;;;;;;10.57;6.60;;;8.20;99.90;;;;;;5006723;28;20037;-76
2022/04/25 04:31:57;;;;;;;12.48;6.68;;;8.20;99.90;;;;;;5005679;28;20074;-75
2022/04/25 04:34:23;;;;;;;14.30;6.68;;;8.20;99.90;;;;;;5004457;28;20107;-75
2022/04/25 04:36:50;;;;;;;11.57;6.57;;;8.20;99.90;;;;;;5004866;28;20417;-75
2022/04/25 04:39:16;;;;;;;9.55;6.25;;;8.20;99.90;;;;;;5006237;28;20053;-76
2022/04/25 04:41:42;;;;;;;11.25;6.55;;;8.20;99.90;;;;;;5004952;28;20092;-76
2022/04/25 04:44:07;;;;;;;11.98;6.60;;;8.20;99.90;;;;;;5004243;28;20481;-76
2022/04/25 04:46:33;;;;;;;15.07;6.95;;;8.20;99.90;;;;;;4989576;28;20050;-76
2022/04/25 04:48:58;;;;;;;11.85;6.50;;;8.20;99.90;;;;;;4990431;28;20069;-76
2022/04/25 04:51:24;;;;;;;13.63;7.53;;;8.20;99.90;;;;;;5004258;28;21030;-76
2022/04/25 04:53:50;;;;;;;14.35;7.40;;;7.80;99.90;;;;;;5006457;28;20041;-74
2022/04/25 04:56:15;;;;;;;14.52;6.55;;;8.20;99.90;;;;;;5003448;28;20034;-74
2022/04/25 04:58:41;;;;;;;12.90;7.15;;;8.20;99.90;;;;;;5005396;28;20042;-75
2022/04/25 05:01:07;;;;;;;12.60;6.63;;;8.10;99.90;;;;;;4998468;28;20081;-75
2022/04/25 05:03:34;;;;;;;10.90;6.68;;;8.20;99.90;;;;;;4998075;28;20041;-76
2022/04/25 05:06:00;;;;;;;9.45;6.72;;;8.10;99.90;;;;;;5004423;28;20492;-75
2022/04/25 05:08:25;;;;;;;16.20;7.60;;;8.20;99.90;;;;;;5002726;28;20112;-75
2022/04/25 05:10:53;;;;;;;11.95;7.80;;;8.20;99.90;;;;;;5000702;28;20099;-75
2022/04/25 05:13:20;;;;;;;11.75;7.93;;;8.10;99.90;;;;;;5004395;28;20124;-75
2022/04/25 05:15:49;;;;;;;14.68;7.97;;;8.10;99.90;;;;;;4985482;28;20038;-76
2022/04/25 05:18:15;;;;;;;10.15;7.80;;;8.10;99.90;;;;;;5003843;28;20042;-76
2022/04/25 05:20:41;;;;;;;9.38;7.50;;;8.10;99.90;;;;;;4997421;28;20042;-76
2022/04/25 05:23:10;;;;;;;14.50;8.48;;;8.00;99.90;;;;;;4976691;28;20400;-75
2022/04/25 05:25:38;;;;;;;10.55;7.30;;;8.20;99.90;;;;;;4981658;28;20046;-75
2022/04/25 05:28:05;;;;;;;16.15;8.40;;;8.20;99.90;;;;;;4984246;28;20048;-76
2022/04/25 05:30:32;;;;;;;14.50;7.70;;;8.10;99.90;;;;;;4983485;28;20077;-76
2022/04/25 05:33:02;;;;;;;14.95;9.30;;;8.40;99.90;;;;;;5001774;28;20113;-76
2022/04/25 05:35:33;;;;;;;14.18;8.90;;;8.10;99.90;;;;;;5005049;28;20050;-76
2022/04/25 05:38:00;;;;;;;12.13;8.38;;;8.10;99.90;;;;;;5005190;28;20048;-75
2022/04/25 05:40:26;;;;;;;19.23;8.63;;;9.40;99.90;;;;;;5004791;28;20050;-75
2022/04/25 05:42:53;;;;;;;11.13;8.45;;;8.10;99.90;;;;;;5003476;28;20042;-75
2022/04/25 05:45:22;;;;;;;12.52;8.43;;;8.10;99.90;;;;;;4999610;28;20054;-76
2022/04/25 05:47:49;;;;;;;11.50;8.25;;;8.10;99.90;;;;;;4998563;28;20077;-76
2022/04/25 05:53:02;;;;;;;9.60;6.93;;;8.10;99.90;;;;;;4997726;28;20180;-75
2022/04/25 05:55:28;;;;;;;8.82;7.25;;;8.20;99.90;;;;;;5003373;28;20046;-75
2022/04/25 05:57:54;;;;;;;10.35;7.03;;;8.90;99.90;;;;;;5003640;28;20176;-75
2022/04/25 06:00:21;;;;;;;14.52;6.72;;;8.20;99.90;;;;;;5004526;28;20058;-75
2022/04/25 06:02:47;;;;;;;12.25;7.60;;;8.20;99.90;;;;;;4995620;28;20049;-76
2022/04/25 06:05:15;;;;;;;12.18;7.20;;;8.20;99.90;;;;;;5001016;28;20046;-75
2022/04/25 06:07:42;;;;;;;10.75;6.70;;;8.20;99.90;;;;;;5001761;28;20530;-74
2022/04/25 06:10:08;;;;;;;10.18;6.45;;;8.20;99.90;;;;;;4982199;28;20053;-74
2022/04/25 06:12:41;;;;;;;15.93;7.85;;;8.20;99.90;;;;;;4981915;28;20494;-75
2022/04/25 06:15:08;;;;;;;9.95;6.55;;;8.20;99.90;;;;;;5002700;28;20052;-75
2022/04/25 06:17:35;;;;;;;12.13;6.63;;;8.20;99.90;;;;;;4980716;28;20046;-75
2022/04/25 06:20:00;;;;;;;9.88;6.40;;;8.20;99.90;;;;;;4978762;28;20550;-75
2022/04/25 06:22:28;;;;;;;14.18;7.15;;;8.20;99.90;;;;;;4983647;28;20177;-75
2022/04/25 06:24:53;;;;;;;9.95;6.90;;;8.20;99.90;;;;;;4983105;28;20494;-73
2022/04/25 06:27:27;;;;;;;11.51;6.86;;;8.20;99.90;;;;;;4592647;28;10002917;-74
2022/04/25 06:29:53;;;;;;;16.42;6.85;;;8.20;99.90;;;;;;5002192;28;20038;-72
2022/04/25 06:32:19;;;;;;;13.98;7.13;;;8.20;99.90;;;;;;4997389;28;20050;-76
2022/04/25 06:34:46;;;;;;;12.02;7.53;;;8.40;99.90;;;;;;4995266;28;20589;-73
2022/04/25 06:37:12;;;;;;;11.77;7.40;;;8.20;99.90;;;;;;4986323;28;20515;-77
2022/04/25 06:39:37;;;;;;;7.88;7.03;;;8.30;99.90;;;;;;5003919;28;20037;-75
2022/04/25 06:42:05;;;;;;;11.60;7.35;;;8.30;99.90;;;;;;4996580;28;20132;-75
2022/04/25 06:44:31;;;;;;;12.68;7.43;;;8.30;99.90;;;;;;5004816;28;20111;-74
2022/04/25 06:46:58;;;;;;;14.40;7.82;;;9.40;99.90;;;;;;5001384;28;20136;-76
2022/04/25 06:49:23;;;;;;;12.82;7.57;;;8.40;99.90;;;;;;5000247;28;20608;-75
2022/04/25 06:51:56;;;;;;;13.13;7.22;;;8.50;99.90;;;;;;4986235;28;20042;-75
2022/04/25 06:54:25;;;;;;;15.13;7.40;;;8.40;99.90;;;;;;5020202;28;20049;-77
2022/04/25 06:56:52;;;;;;;10.18;7.10;;;8.40;99.90;;;;;;4998607;28;20126;-74
2022/04/25 06:59:19;;;;;;;13.85;7.82;;;8.40;99.90;;;;;;4999318;28;20500;-74
2022/04/25 07:01:45;;;;;;;12.15;8.10;;;8.40;99.90;;;;;;5002789;28;20027;-75
2022/04/25 07:04:13;;;;;;;11.60;8.13;;;8.40;99.90;;;;;;5004499;28;20062;-75
2022/04/25 07:06:39;;;;;;;13.05;8.60;;;8.50;99.90;;;;;;4987232;28;20041;-75
2022/04/25 07:09:06;;;;;;;15.93;7.43;;;8.50;99.90;;;;;;5005321;28;20053;-77
2022/04/25 07:11:33;;;;;;;14.82;7.65;;;8.50;99.90;;;;;;5002205;28;20065;-76
2022/04/25 07:13:59;;;;;;;12.23;7.68;;;8.50;99.90;;;;;;5008597;28;20406;-74
2022/04/25 07:16:25;;;;;;;12.52;7.35;;;8.60;99.90;;;;;;5003031;28;20050;-74
2022/04/25 07:18:52;;;;;;;10.93;7.72;;;8.60;99.90;;;;;;5005982;28;20069;-74
2022/04/25 07:29:47;;;;;;;15.63;7.88;;;8.60;99.90;;;;;;5007384;28;20049;-78
2022/04/25 07:32:14;;;;;;;14.15;8.10;;;8.50;99.90;;;;;;5006033;28;20540;-76
2022/04/25 07:34:41;;;;;;;10.40;7.40;;;8.50;99.90;;;;;;5008717;28;20053;-74
2022/04/25 07:37:07;;;;;;;18.05;7.43;;;8.60;99.90;;;;;;5006356;28;20042;-74
2022/04/25 07:39:32;;;;;;;16.23;7.85;;;8.50;99.90;;;;;;5006787;28;20057;-75
2022/04/25 07:41:58;;;;;;;12.25;7.85;;;8.50;99.90;;;;;;4971382;28;20053;-75
2022/04/25 07:44:26;;;;;;;12.23;7.65;;;8.50;99.90;;;;;;4999022;28;20076;-75
2022/04/25 07:46:53;;;;;;;15.43;8.52;;;8.50;99.90;;;;;;5008345;28;20041;-75
2022/04/25 07:49:18;;;;;;;13.93;8.15;;;8.50;99.90;;;;;;5003503;28;20906;-79
2022/04/25 07:51:44;;;;;;;11.38;7.90;;;8.50;99.90;;;;;;5004838;28;20045;-73
2022/04/25 07:54:11;;;;;;;16.63;8.07;;;8.50;99.90;;;;;;5003281;28;20104;-72
2022/04/25 07:56:37;;;;;;;18.08;9.20;;;8.50;99.90;;;;;;5004259;28;20043;-76
2022/04/25 07:59:05;;;;;;;16.67;9.10;;;8.40;99.90;;;;;;5010162;28;20397;-76
2022/04/25 08:01:30;;;;;;;13.30;8.73;;;8.50;99.90;;;;;;5002701;28;20111;-73
2022/04/25 08:03:56;;;;;;;11.20;8.57;;;9.70;99.90;;;;;;4999818;28;20035;-74
2022/04/25 08:06:22;;;;;;;11.55;8.50;;;8.50;99.90;;;;;;4985175;28;20133;-78
2022/04/25 08:08:52;;;;;;;9.23;8.30;;;8.50;99.90;;;;;;4989641;28;20042;-74
2022/04/25 08:11:19;;;;;;;13.07;8.80;;;8.50;99.90;;;;;;4986312;28;20042;-75
2022/04/25 08:19:15;;;;;;;15.65;8.55;;;8.60;99.90;;;;;;5008723;28;20046;-78
2022/04/25 08:21:41;;;;;;;16.25;8.65;;;10.40;99.90;;;;;;5006723;28;20038;-73
2022/04/25 08:24:07;;;;;;;14.05;8.10;;;8.70;99.90;;;;;;5000990;28;20097;-75
2022/04/25 08:26:33;;;;;;;13.60;7.72;;;8.70;99.90;;;;;;5009003;28;20625;-74
2022/04/25 08:28:59;;;;;;;15.25;7.88;;;8.80;99.90;;;;;;5005731;28;20085;-73
2022/04/25 08:31:28;;;;;;;14.65;8.57;;;8.80;99.90;;;;;;5006513;28;20049;-77
2022/04/25 08:33:55;;;;;;;15.88;7.72;;;8.80;99.90;;;;;;5002045;28;20552;-74
2022/04/25 08:36:21;;;;;;;8.73;6.53;;;10.50;99.90;;;;;;5001012;28;20049;-75
2022/04/25 08:38:47;;;;;;;6.65;5.95;;;8.90;99.90;;;;;;4988882;28;20040;-78
2022/04/25 08:41:15;;;;;;;14.85;6.90;;;8.90;99.90;;;;;;5006826;28;20289;-76
2022/04/25 08:43:42;;;;;;;12.68;6.72;;;9.00;99.90;;;;;;5004203;28;20523;-77
2022/04/25 08:46:10;;;;;;;13.32;6.68;;;9.00;99.90;;;;;;4994254;28;20045;-79
2022/04/25 08:48:38;;;;;;;11.00;6.82;;;8.80;99.90;;;;;;5002553;28;20464;-78
2022/04/25 08:51:04;;;;;;;13.73;6.80;;;9.10;99.90;;;;;;5004659;28;20048;-74
2022/04/25 08:53:32;;;;;;;34.80;9.88;;;9.10;99.90;;;;;;5005994;28;20113;-73
2022/04/25 08:55:59;;;;;;;14.98;11.07;;;9.10;99.90;;;;;;5007686;28;20057;-79
2022/04/25 08:58:26;;;;;;;15.00;11.18;;;9.20;99.90;;;;;;5005069;28;20061;-73
2022/04/25 09:00:53;;;;;;;16.80;12.02;;;9.20;99.90;;;;;;5004327;28;20080;-73
2022/04/25 09:03:18;;;;;;;21.08;12.25;;;9.30;99.90;;;;;;5001139;28;20045;-73
2022/04/25 09:05:44;;;;;;;21.83;10.60;;;9.30;99.90;;;;;;5003831;28;20457;-74
2022/04/25 09:08:10;;;;;;;15.88;10.27;;;9.30;99.90;;;;;;4986634;28;20129;-79
2022/04/25 09:10:38;;;;;;;8.43;6.65;;;9.30;99.90;;;;;;4984846;28;20089;-79
2022/04/25 09:13:03;;;;;;;8.23;5.78;;;9.30;99.90;;;;;;5009073;28;20042;-80
2022/04/25 09:15:29;;;;;;;10.70;3.90;;;9.40;99.90;;;;;;4305976;28;10021522;-78
2022/04/25 09:17:55;;;;;;;9.77;5.60;;;9.30;99.90;;;;;;5003257;28;20103;-81
2022/04/25 09:20:22;;;;;;;9.65;5.07;;;8.90;99.90;;;;;;4996148;28;20042;-81
2022/04/25 09:22:48;;;;;;;10.80;5.18;;;9.20;99.90;;;;;;4985929;28;20509;-78
2022/04/25 09:25:16;;;;;;;9.00;4.88;;;9.20;99.90;;;;;;4983741;28;20125;-79
2022/04/25 09:27:43;;;;;;;6.82;4.72;;;10.90;99.90;;;;;;4979914;28;20068;-77
2022/04/25 09:30:19;;;;;;;11.18;5.95;;;9.30;99.90;;;;;;4982485;28;20053;-80
2022/04/25 09:32:47;;;;;;;10.75;5.32;;;9.30;99.90;;;;;;4996629;28;20042;-80
2022/04/25 09:35:25;;;;;;;12.10;5.03;;;9.30;99.90;;;;;;4996519;28;20567;-80
2022/04/25 09:37:51;;;;;;;6.85;5.00;;;9.30;99.90;;;;;;5001517;28;20498;-77
2022/04/25 09:40:28;;;;;;;11.38;5.22;;;9.30;99.90;;;;;;4995210;28;20052;-81
2022/04/25 09:43:04;;;;;;;8.55;4.40;;;9.40;99.90;;;;;;4995710;28;20417;-78
2022/04/25 09:45:31;;;;;;;8.38;3.63;;;10.10;99.90;;;;;;4990813;28;20489;-81
2022/04/25 09:47:57;;;;;;;7.22;4.15;;;9.40;99.90;;;;;;5007567;28;20116;-80
2022/04/25 09:50:27;;;;;;;6.72;4.55;;;9.50;99.90;;;;;;5003136;28;20050;-79
2022/04/25 09:53:03;;;;;;;13.52;4.93;;;9.50;99.90;;;;;;5006840;28;20038;-79
2022/04/25 09:55:34;;;;;;;6.30;4.05;;;9.60;99.90;;;;;;5008860;28;20066;-80
2022/04/25 09:58:12;;;;;;;8.75;4.20;;;9.70;99.90;;;;;;5006166;28;20520;-77
2022/04/25 10:00:38;;;;;;;10.82;4.15;;;9.80;99.90;;;;;;5006587;28;20520;-81
2022/04/25 10:03:05;;;;;;;5.30;3.22;;;9.90;99.90;;;;;;5007542;28;20081;-79
2022/04/25 10:05:40;;;;;;;5.13;3.63;;;9.90;99.90;;;;;;4988438;28;20096;-79
2022/04/25 10:08:08;;;;;;;13.02;5.15;;;10.00;99.90;;;;;;4987030;28;20054;-79
2022/04/25 10:10:34;;;;;;;11.38;4.50;;;10.00;99.90;;;;;;5000569;28;20513;-80
2022/04/25 10:13:00;;;;;;;9.85;3.88;;;9.80;99.90;;;;;;5010375;28;20469;-80
2022/04/25 10:15:26;;;;;;;9.50;3.72;;;11.10;99.90;;;;;;4993815;28;20049;-78
2022/04/25 10:17:55;;;;;;;7.68;2.80;;;10.20;99.90;;;;;;5009044;28;20065;-80
2022/04/25 10:20:21;;;;;;;5.82;3.33;;;10.30;99.90;;;;;;5007892;28;20093;-77
2022/04/25 10:22:46;;;;;;;9.85;3.30;;;10.30;99.90;;;;;;5011079;28;20433;-79
2022/04/25 10:25:12;;;;;;;3.72;3.13;;;10.40;99.90;;;;;;5007749;28;20081;-80
2022/04/25 10:27:42;;;;;;;5.28;3.20;;;10.40;99.90;;;;;;5012578;28;20425;-79
2022/04/25 10:30:16;;;;;;;8.55;4.20;;;10.40;99.90;;;;;;4986174;28;20107;-79
2022/04/25 10:32:41;;;;;;;5.47;3.28;;;10.60;99.90;;;;;;4994654;28;20041;-79
2022/04/25 10:35:29;;;;;;;5.82;3.53;;;10.60;99.90;;;;;;5003620;28;20053;-77
2022/04/25 10:37:55;;;;;;;5.10;3.22;;;10.70;99.90;;;;;;4995414;28;20038;-78
2022/04/25 10:46:13;;;;;;;7.68;3.22;;;11.90;99.90;;;;;;5012466;28;20038;-80
2022/04/25 10:49:09;;;;;;;7.00;3.40;;;10.90;99.90;;;;;;5006457;28;20030;-78
2022/04/25 10:51:39;;;;;;;9.88;3.13;;;11.00;99.90;;;;;;4984466;28;20474;-80
2022/04/25 10:54:05;;;;;;;7.00;3.00;;;12.60;99.90;;;;;;4985507;28;20056;-78
2022/04/25 10:56:32;;;;;;;6.72;2.88;;;11.10;99.90;;;;;;4997408;28;20128;-80
2022/04/25 10:59:28;;;;;;;4.95;3.30;;;11.10;99.90;;;;;;5003341;28;20042;-79
2022/04/25 11:01:58;;;;;;;8.23;3.10;;;11.10;99.90;;;;;;5001796;28;20124;-80
2022/04/25 11:04:24;;;;;;;7.22;3.20;;;11.80;99.90;;;;;;4995334;28;20077;-78
2022/04/25 11:07:21;;;;;;;6.15;3.20;;;11.30;99.90;;;;;;5004794;28;20439;-78
2022/04/25 11:09:47;;;;;;;6.60;3.83;;;11.20;99.90;;;;;;5006551;28;20088;-78
2022/04/25 11:12:13;;;;;;;5.07;3.10;;;11.10;99.90;;;;;;5002317;28;20050;-77
2022/04/25 11:15:00;;;;;;;8.05;3.50;;;11.20;99.90;;;;;;5001688;28;20041;-78
2022/04/25 11:17:26;;;;;;;20.75;13.57;;;11.30;99.90;;;;;;4978408;28;20154;-79
2022/04/25 11:19:54;;;;;;;6.20;3.40;;;11.30;99.90;;;;;;4984398;28;20041;-78
2022/04/25 11:22:38;;;;;;;4.68;3.45;;;11.30;99.90;;;;;;4309917;28;10000730;-78
2022/04/25 11:25:22;;;;;;;;;;;11.30;99.90;;;;;;5005631;28;20073;-76
2022/04/25 11:28:05;;;;;;;7.50;3.40;;;11.40;99.90;;;;;;5001406;28;19988;-77
2022/04/25 11:30:31;;;;;;;9.93;4.53;;;11.40;99.90;;;;;;5004695;28;20104;-79
2022/04/25 11:33:08;;;;;;;5.10;3.80;;;11.50;99.90;;;;;;4982173;28;20044;-79
2022/04/25 11:35:34;;;;;;;8.00;3.47;;;11.70;99.90;;;;;;4968069;28;20054;-78
2022/04/25 11:38:00;;;;;;;5.10;3.38;;;11.80;99.90;;;;;;4986568;28;20118;-79
2022/04/25 11:40:27;;;;;;;7.22;3.63;;;11.90;99.90;;;;;;5006159;28;20124;-78
2022/04/25 11:42:53;;;;;;;5.85;3.50;;;12.20;99.90;;;;;;4981467;28;20057;-78
2022/04/25 11:45:19;;;;;;;4.03;3.10;;;12.30;99.90;;;;;;4998266;28;20050;-80
2022/04/25 11:47:45;;;;;;;6.78;3.70;;;12.40;99.90;;;;;;4997560;28;20041;-79
2022/04/25 11:50:12;;;;;;;6.97;4.15;;;12.50;99.90;;;;;;4997751;28;20046;-74
2022/04/25 11:52:45;;;;;;;8.25;4.30;;;12.60;99.90;;;;;;4991621;28;20989;-78
2022/04/25 11:55:11;;;;;;;14.13;3.60;;;12.10;99.90;;;;;;5004062;28;20046;-78
2022/04/25 11:57:40;;;;;;;5.35;4.07;;;14.10;99.90;;;;;;4982829;28;20053;-81
2022/04/25 12:00:17;;;;;;;7.70;5.20;;;12.40;99.90;;;;;;5003378;28;20052;-81
2022/04/25 12:02:44;;;;;;;14.05;5.75;;;12.60;99.90;;;;;;4994035;28;20034;-80
2022/04/25 12:05:11;;;;;;;7.38;4.28;;;12.60;99.90;;;;;;4984665;28;20128;-82
2022/04/25 12:15:33;;;;;;;7.57;3.97;;;12.40;99.90;;;;;;5003339;28;20383;-80
2022/04/25 12:15:55;;;;;;;11.25;3.92;;;11.80;99.90;;;;;;5007642;28;20121;-81
2022/04/25 12:18:23;;;;;;;5.22;3.10;;;13.60;99.90;;;;;;4986619;28;20138;-82
2022/04/25 12:20:51;;;;;;;8.05;3.50;;;12.40;99.90;;;;;;5000170;28;20039;-80
2022/04/25 12:23:31;;;;;;;8.77;4.18;;;13.10;99.90;;;;;;5008946;28;20054;-80
2022/04/25 12:25:58;;;;;;;9.48;3.80;;;12.20;99.90;;;;;;4985485;28;20034;-81
2022/04/25 12:28:26;;;;;;;7.63;3.72;;;14.00;99.90;;;;;;5005076;28;20081;-78
2022/04/25 12:31:04;;;;;;;5.40;3.42;;;12.30;99.90;;;;;;4986813;28;20042;-75
2022/04/25 12:33:35;;;;;;;9.77;4.07;;;12.20;99.90;;;;;;4987588;28;20041;-73
2022/04/25 12:36:19;;;;;;;11.20;7.25;;;12.20;99.90;;;;;;5002453;28;20486;-82
2022/04/25 12:38:52;;;;;;;9.82;3.90;;;12.10;99.90;;;;;;4661001;28;10001121;-77
2022/04/25 12:41:34;;;;;;;7.50;3.70;;;12.10;99.90;;;;;;4999596;28;20113;-78
2022/04/25 12:44:00;;;;;;;5.20;3.92;;;12.10;99.90;;;;;;4982922;28;20049;-75
2022/04/25 12:46:46;;;;;;;6.38;4.00;;;12.10;99.90;;;;;;5007723;28;20452;-75
2022/04/25 12:49:14;;;;;;;8.30;4.35;;;12.00;99.90;;;;;;5005899;28;20179;-80
2022/04/25 12:51:52;;;;;;;5.63;4.03;;;12.00;99.90;;;;;;4995962;28;20046;-79
2022/04/25 12:54:46;;;;;;;6.55;4.03;;;12.10;99.90;;;;;;4999365;28;20133;-79
2022/04/25 12:57:15;;;;;;;11.40;4.68;;;12.20;99.90;;;;;;5002895;28;20053;-80
2022/04/25 12:59:43;;;;;;;11.65;4.45;;;12.10;99.90;;;;;;4979982;28;20498;-79
2022/04/25 13:02:14;;;;;;;5.25;4.22;;;12.30;99.90;;;;;;4984730;28;20056;-80
2022/04/25 13:04:52;;;;;;;8.90;4.68;;;12.50;99.90;;;;;;5002059;28;20031;-80
2022/04/25 13:07:31;;;;;;;7.05;3.70;;;13.10;99.90;;;;;;4985367;28;20061;-80
2022/04/25 13:10:02;;;;;;;4.90;3.75;;;12.00;99.90;;;;;;4988606;28;20046;-79
2022/04/25 13:12:36;;;;;;;5.50;4.28;;;12.10;99.90;;;;;;5001879;28;20350;-79
2022/04/25 13:15:04;;;;;;;8.15;4.43;;;12.10;99.90;;;;;;5004540;28;20137;-79
2022/04/25 13:17:30;;;;;;;5.18;3.47;;;12.10;99.90;;;;;;5005655;28;20081;-79
2022/04/25 13:19:56;;;;;;;6.28;4.45;;;12.10;99.90;;;;;;4999791;28;20084;-76
2022/04/25 13:22:22;;;;;;;6.63;4.10;;;12.00;99.90;;;;;;5000439;28;20074;-78
2022/04/25 13:24:48;;;;;;;5.10;3.75;;;12.70;99.90;;;;;;4995044;28;20034;-75
2022/04/25 13:27:17;;;;;;;7.93;4.65;;;12.10;99.90;;;;;;4994929;28;20061;-74